Airborne Airpark
KILN : rendu visible

Aérodrome :











RETROUVEZ-NOUS SUR...

 
LOGIN :

S'inscrire | Disclaimer

   EN    FR    IT 

 









Légende :    VFR   VFR Marginal   IFR   IFR Intensif   IFR Très Intensif
Visi : 
Plafond : 
>= 8 km
>= 3000ft
5 à 8 km
1000 à 3000 ft
1500m à 5 km
500 à 1000 ft
800 à 1500m
200 à 500 ft
< 800m
< 200 ft
Symboles :   Orages  Brouillard  Fortes neiges  Fortes précipitations  Vent > 20 kt






- Altitude de l'aérodrome : 1077 ft


KILN - Airborne Airpark

DERNIER METAR :
  • 191154Z AUTO 20003KT 6SM BR BKN008 OVC022 03/02 A2979 RMK AO2 CIG 006V010 SLP104 60000 T00280022 10033 20028 56000

METARs EXPIRÉS :
  • 191129Z AUTO 20003KT 6SM BR SCT007 OVC019 03/03 A2978 RMK AO2 T00280028
  • 191054Z AUTO 24004KT 7SM OVC016 03/02 A2978 RMK AO2 SLP102 T00280022
  • 191016Z AUTO 27005KT 6SM BR SCT006 SCT010 OVC017 03/02 A2979 RMK AO2 T00280022
  • 190954Z AUTO 28006KT 4SM BR OVC005 03/02 A2979 RMK AO2 RAE37 CIG 004V010 SLP104 P0000 T00280022

TAF KILN
Valide du 19 à 12h jusqu'au 20 à 12h UTC


191229Z 1912/2012 20004KT 5SM BR BKN006
FM191400 22004KT P6SM BKN015
FM191500 20006KT P6SM BKN035
FM191900 19004KT P6SM VCSH BKN040
FM200000 24003KT P6SM BKN035
FM200500 29003KT P6SM OVC025



MET'MAP, la Météo Aéronautique d'un coup d'oeil ! - Copyright ORBIFLY Décembre 2007 - Disclaimer

ORBIFLY MET'MAP TEAM :

Programmation & Développement : Alexandra Zaïnal
Conception & Développement : Baudouin d'Aumeries
Co-Programmation & Développement : Marc-Olivier Méhu
Soutien technique & logistique : Manuel Goepfert

Contact : metmap@orbifly.com




SOURCES & CREDITS :

   NOAA       Earth
Advisory